createdAt,value
2022-10-18T00:01:53.511Z,10.10
2022-10-18T00:04:21.275Z,9.54
2022-10-18T00:06:49.008Z,10.13
2022-10-18T00:09:18.052Z,10.35
2022-10-18T00:11:45.754Z,10.26
2022-10-18T00:14:13.508Z,10.23
2022-10-18T00:16:41.539Z,10.07
2022-10-18T00:19:09.222Z,10.23
2022-10-18T00:21:37.062Z,9.85
2022-10-18T00:24:05.567Z,10.55
2022-10-18T00:26:34.608Z,10.51
2022-10-18T00:29:04.027Z,10.26
2022-10-18T00:31:33.627Z,10.25
2022-10-18T00:34:08.022Z,10.30
2022-10-18T00:36:35.787Z,9.17
2022-10-18T00:39:05.395Z,9.55
2022-10-18T00:41:37.808Z,10.01
2022-10-18T00:44:45.222Z,9.98
2022-10-18T00:47:16.298Z,9.47
2022-10-18T00:49:47.591Z,9.93
2022-10-18T00:52:19.065Z,9.63
2022-10-18T00:54:48.337Z,9.95
2022-10-18T00:57:18.235Z,9.98
2022-10-18T00:59:47.094Z,9.70
2022-10-18T01:02:18.161Z,10.31
2022-10-18T01:04:47.432Z,10.42
2022-10-18T01:07:33.924Z,10.50
2022-10-18T01:10:24.557Z,10.57
2022-10-18T01:13:06.659Z,10.62
2022-10-18T01:15:41.265Z,10.45
2022-10-18T01:18:19.810Z,10.89
2022-10-18T01:21:15.032Z,10.53
2022-10-18T01:24:03.465Z,10.49
2022-10-18T01:26:47.427Z,10.37
2022-10-18T01:29:33.950Z,9.51
2022-10-18T01:32:06.031Z,10.12
2022-10-18T01:34:37.141Z,10.02
2022-10-18T01:37:10.379Z,10.00
2022-10-18T01:39:43.535Z,10.01
2022-10-18T01:42:14.670Z,9.98
2022-10-18T01:44:43.762Z,9.89
2022-10-18T01:47:15.354Z,9.06
2022-10-18T01:49:43.360Z,9.40
2022-10-18T01:52:13.663Z,9.83
2022-10-18T01:54:46.203Z,9.79
2022-10-18T01:57:25.440Z,9.06
2022-10-18T01:59:59.918Z,9.91
2022-10-18T02:02:41.473Z,9.24
2022-10-18T02:05:19.271Z,9.63
2022-10-18T02:08:05.675Z,9.69
2022-10-18T02:10:45.908Z,9.58
2022-10-18T02:13:17.047Z,9.50
2022-10-18T02:15:48.464Z,9.31
2022-10-18T02:18:24.311Z,9.46
2022-10-18T02:20:52.752Z,9.55
2022-10-18T02:23:24.606Z,9.49
2022-10-18T02:25:53.717Z,9.65
2022-10-18T02:28:21.857Z,9.75
2022-10-18T02:30:58.128Z,9.62
2022-10-18T02:33:35.030Z,9.74
2022-10-18T02:36:07.212Z,9.28
2022-10-18T02:38:35.473Z,9.87
2022-10-18T02:41:03.319Z,9.16
2022-10-18T02:43:31.220Z,9.46
2022-10-18T02:45:59.033Z,9.93
2022-10-18T02:48:28.080Z,9.91
2022-10-18T02:50:55.757Z,9.82
2022-10-18T02:53:24.459Z,9.82
2022-10-18T02:55:52.115Z,9.72
2022-10-18T02:58:19.847Z,9.72
2022-10-18T03:00:50.724Z,9.66
2022-10-18T03:03:18.391Z,9.47
2022-10-18T03:05:51.466Z,9.39
2022-10-18T03:08:19.976Z,9.40
2022-10-18T03:10:48.191Z,9.52
2022-10-18T03:13:16.016Z,9.39
2022-10-18T03:15:43.754Z,9.36
2022-10-18T03:18:11.773Z,9.34
2022-10-18T03:20:39.465Z,9.34
2022-10-18T03:23:08.569Z,9.32
2022-10-18T03:25:36.319Z,9.09
2022-10-18T03:28:04.341Z,8.94
2022-10-18T03:30:32.074Z,9.18
2022-10-18T03:32:59.829Z,9.27
2022-10-18T03:35:27.640Z,9.37
2022-10-18T03:37:55.450Z,8.79
2022-10-18T03:40:24.580Z,8.53
2022-10-18T03:42:52.284Z,8.75
2022-10-18T03:45:20.068Z,9.26
2022-10-18T03:47:47.792Z,9.25
2022-10-18T03:50:15.535Z,9.28
2022-10-18T03:52:43.237Z,8.48
2022-10-18T03:55:14.215Z,9.24
2022-10-18T03:57:43.327Z,8.39
2022-10-18T04:00:12.595Z,8.45
2022-10-18T04:02:40.629Z,9.21
2022-10-18T04:05:10.380Z,9.10
2022-10-18T04:07:38.179Z,8.26
2022-10-18T04:10:06.621Z,8.18
2022-10-18T04:12:34.564Z,8.70
2022-10-18T04:15:04.129Z,9.18
2022-10-18T04:17:31.986Z,9.25
2022-10-18T04:20:00.000Z,8.58
2022-10-18T04:22:27.901Z,8.83
2022-10-18T04:24:57.820Z,8.20
2022-10-18T04:27:25.837Z,8.35
2022-10-18T04:29:53.643Z,9.12
2022-10-18T04:32:22.992Z,8.95
2022-10-18T04:34:53.155Z,7.98
2022-10-18T04:37:20.882Z,8.10
2022-10-18T04:39:51.357Z,8.79
2022-10-18T04:42:46.411Z,9.15
2022-10-18T04:45:14.289Z,8.93
2022-10-18T04:47:43.425Z,9.02
2022-10-18T04:50:11.283Z,9.11
2022-10-18T04:52:38.950Z,8.48
2022-10-18T04:55:07.565Z,8.21
2022-10-18T04:57:35.328Z,8.65
2022-10-18T05:00:03.270Z,8.68
2022-10-18T05:02:31.323Z,9.32
2022-10-18T05:05:00.647Z,9.42
2022-10-18T05:07:29.499Z,9.47
2022-10-18T05:09:57.336Z,8.51
2022-10-18T05:12:25.133Z,8.95
2022-10-18T05:14:53.298Z,9.49
2022-10-18T05:17:21.072Z,8.91
2022-10-18T05:19:48.881Z,9.20
2022-10-18T05:22:18.018Z,9.00
2022-10-18T05:24:45.718Z,9.09
2022-10-18T05:27:13.422Z,9.37
2022-10-18T05:29:41.136Z,9.18
2022-10-18T05:32:08.923Z,9.42
2022-10-18T05:34:36.768Z,9.10
2022-10-18T05:37:04.622Z,9.45
2022-10-18T05:39:34.057Z,9.51
2022-10-18T05:42:02.418Z,8.98
2022-10-18T05:44:30.123Z,8.35
2022-10-18T05:46:57.920Z,9.58
2022-10-18T05:49:25.706Z,9.54
2022-10-18T05:51:53.408Z,8.17
2022-10-18T05:54:21.236Z,9.72
2022-10-18T05:56:50.297Z,9.54
2022-10-18T05:59:19.970Z,9.57
2022-10-18T06:01:47.662Z,9.48
2022-10-18T06:04:15.330Z,9.61
2022-10-18T06:06:43.024Z,9.19
2022-10-18T06:09:10.731Z,10.05
2022-10-18T06:11:38.567Z,10.08
2022-10-18T06:14:09.008Z,10.04
2022-10-18T12:08:45.491Z,18.40
2022-10-18T12:11:16.782Z,18.37
2022-10-18T12:13:52.674Z,18.52
2022-10-18T12:16:49.614Z,18.57
2022-10-18T12:19:23.723Z,18.40
2022-10-18T12:21:56.019Z,18.69
2022-10-18T12:24:28.605Z,18.69
2022-10-18T12:27:00.750Z,18.65
2022-10-18T12:29:34.263Z,18.48
2022-10-18T12:32:07.148Z,18.65
2022-10-18T12:34:38.197Z,19.01
2022-10-18T12:37:26.392Z,18.96
2022-10-18T12:40:20.259Z,18.86
2022-10-18T12:42:50.212Z,18.74
2022-10-18T12:45:26.152Z,18.55
2022-10-18T12:47:55.145Z,18.64
2022-10-18T12:50:31.148Z,18.91
2022-10-18T12:53:19.967Z,18.44
2022-10-18T12:55:52.333Z,19.01
2022-10-18T12:58:32.619Z,18.95
2022-10-18T13:01:06.456Z,18.51
2022-10-18T13:04:00.375Z,18.79
2022-10-18T13:07:14.741Z,18.76
2022-10-18T13:10:03.286Z,18.83
2022-10-18T13:13:12.203Z,18.82
2022-10-18T13:15:50.112Z,19.03
2022-10-18T13:18:25.030Z,19.02
2022-10-18T13:21:03.912Z,19.18
2022-10-18T13:23:43.487Z,19.16
2022-10-18T13:26:22.782Z,19.23
2022-10-18T13:29:01.720Z,19.13
2022-10-18T13:31:41.222Z,19.28
2022-10-18T13:34:25.465Z,19.25
2022-10-18T13:36:58.966Z,19.28
2022-10-18T13:39:27.677Z,19.24
2022-10-18T13:42:33.523Z,19.17
2022-10-18T13:45:45.531Z,19.13
2022-10-18T13:48:48.656Z,19.18
2022-10-18T13:51:36.539Z,19.01
2022-10-18T13:54:17.634Z,19.16
2022-10-18T13:57:12.483Z,18.88
2022-10-18T13:59:57.151Z,19.07
2022-10-18T14:02:51.471Z,18.91
2022-10-18T14:05:35.232Z,18.89
2022-10-18T14:08:12.390Z,18.38
2022-10-18T14:11:01.239Z,18.85
2022-10-18T14:13:35.794Z,18.62
2022-10-18T14:16:11.092Z,18.27
2022-10-18T14:18:43.873Z,18.45
2022-10-18T14:21:22.038Z,18.52
2022-10-18T14:23:51.738Z,18.70
2022-10-18T14:26:22.639Z,18.60
2022-10-18T14:29:04.107Z,18.53
2022-10-18T14:31:32.224Z,18.15
2022-10-18T14:34:02.147Z,18.22
2022-10-18T14:36:40.579Z,18.66
2022-10-18T14:39:16.413Z,18.76
2022-10-18T14:41:50.390Z,18.83
2022-10-18T14:44:21.731Z,18.61
2022-10-18T14:46:51.741Z,18.47
2022-10-18T14:49:21.823Z,18.37
2022-10-18T14:51:52.439Z,18.85
2022-10-18T14:54:26.232Z,18.54
2022-10-18T14:56:57.529Z,18.33
2022-10-18T14:59:28.301Z,18.25
2022-10-18T15:01:59.438Z,18.41
2022-10-18T15:04:32.917Z,18.38
2022-10-18T15:07:03.051Z,18.31
2022-10-18T15:09:32.542Z,18.12
2022-10-18T15:12:01.710Z,18.21
2022-10-18T15:14:30.708Z,18.09
2022-10-18T15:17:02.760Z,18.19
2022-10-18T15:19:39.295Z,18.27
2022-10-18T15:25:18.213Z,17.94
2022-10-18T15:27:48.665Z,18.05
2022-10-18T15:30:24.019Z,18.01
2022-10-18T15:32:54.537Z,17.97
2022-10-18T15:35:27.062Z,17.95
2022-10-18T15:37:56.988Z,17.90
2022-10-18T15:40:38.996Z,17.62
2022-10-18T15:43:22.933Z,17.99
2022-10-18T15:45:53.134Z,17.95
2022-10-18T15:48:25.088Z,17.77
2022-10-18T15:50:56.681Z,17.56
2022-10-18T15:53:32.551Z,17.30
2022-10-18T15:56:03.747Z,17.77
2022-10-18T15:58:40.022Z,17.45
2022-10-18T16:01:16.519Z,17.26
2022-10-18T16:03:46.545Z,17.43
2022-10-18T16:06:18.269Z,16.89
2022-10-18T16:08:48.531Z,17.51
2022-10-18T16:11:18.170Z,17.08
2022-10-18T16:13:46.763Z,17.22
2022-10-18T16:16:17.025Z,17.22
2022-10-18T16:18:45.360Z,17.12
2022-10-18T16:21:33.286Z,17.01
2022-10-18T16:24:13.254Z,17.02
2022-10-18T16:26:46.278Z,16.49
2022-10-18T16:29:16.566Z,16.29
2022-10-18T16:31:46.975Z,16.55
2022-10-18T16:34:16.215Z,16.88
2022-10-18T16:36:45.820Z,16.82
2022-10-18T16:39:17.062Z,16.40
2022-10-18T16:41:45.315Z,16.18
2022-10-18T16:44:13.445Z,16.38
2022-10-18T16:46:41.995Z,16.56
2022-10-18T16:51:48.775Z,16.35
2022-10-18T16:54:22.821Z,16.56
2022-10-18T16:56:51.308Z,16.40
2022-10-18T16:59:24.566Z,16.09
2022-10-18T17:01:52.440Z,15.88
2022-10-18T17:04:20.311Z,16.00
2022-10-18T17:06:50.005Z,16.22
2022-10-18T17:09:18.178Z,15.85
2022-10-18T17:11:46.906Z,15.79
2022-10-18T17:14:15.154Z,15.84
2022-10-18T17:17:17.799Z,15.26
2022-10-18T17:19:47.420Z,15.21
2022-10-18T17:22:36.823Z,15.56
2022-10-18T17:25:10.330Z,15.12
2022-10-18T17:32:12.882Z,15.41
2022-10-18T17:34:47.530Z,15.41
2022-10-18T17:37:18.737Z,15.19
2022-10-18T17:39:48.286Z,15.14
2022-10-18T17:42:16.623Z,15.19
2022-10-18T17:44:46.210Z,15.31
2022-10-18T17:47:14.237Z,14.96
2022-10-18T17:49:43.787Z,15.15
2022-10-18T17:52:12.116Z,15.21
2022-10-18T17:54:40.154Z,15.22
2022-10-18T17:57:18.968Z,14.82
2022-10-18T17:59:48.608Z,15.08
2022-10-18T18:02:16.631Z,15.21
2022-10-18T18:04:44.755Z,14.78
2022-10-18T18:07:12.850Z,14.64
2022-10-18T18:09:41.709Z,14.74
2022-10-18T18:12:11.424Z,14.96
2022-10-18T18:14:39.405Z,14.61
2022-10-18T18:17:07.178Z,14.96
2022-10-18T18:19:34.987Z,14.95
2022-10-18T18:22:03.640Z,14.65
2022-10-18T18:24:31.581Z,14.68
2022-10-18T18:26:59.354Z,14.74
2022-10-18T18:29:29.229Z,14.84
2022-10-18T18:31:57.028Z,14.89
2022-10-18T18:34:24.791Z,14.73
2022-10-18T18:36:53.399Z,15.02
2022-10-18T18:39:23.635Z,14.97
2022-10-18T18:41:52.844Z,14.96
2022-10-18T18:44:21.640Z,14.89
2022-10-18T18:46:50.786Z,14.96
2022-10-18T18:49:18.622Z,14.84
2022-10-18T18:51:46.742Z,14.79
2022-10-18T18:54:15.959Z,15.00
2022-10-18T18:56:43.878Z,15.03
2022-10-18T18:59:13.891Z,14.89
2022-10-18T19:01:42.665Z,14.79
2022-10-18T19:04:11.910Z,14.86
2022-10-18T19:06:41.833Z,14.87
2022-10-18T19:09:18.652Z,14.87
2022-10-18T19:11:47.672Z,14.58
2022-10-18T19:14:15.823Z,14.61
2022-10-18T19:16:47.914Z,14.48
2022-10-18T19:19:19.174Z,14.79
2022-10-18T19:21:49.093Z,14.84
2022-10-18T19:24:19.425Z,14.66
2022-10-18T19:26:48.998Z,14.54
2022-10-18T19:29:21.275Z,14.47
2022-10-18T19:31:55.002Z,14.33
2022-10-18T19:34:26.316Z,14.49
2022-10-18T19:36:54.159Z,14.22
2022-10-18T19:39:23.274Z,14.32
2022-10-18T19:41:55.047Z,14.26
2022-10-18T19:44:24.080Z,14.28
2022-10-18T19:46:51.963Z,14.35
2022-10-18T19:49:19.722Z,14.10
2022-10-18T19:51:49.153Z,14.13
2022-10-18T19:54:17.396Z,14.02
2022-10-18T19:56:45.207Z,14.11
2022-10-18T19:59:14.068Z,13.98
2022-10-18T20:01:42.227Z,13.76
2022-10-18T20:04:10.763Z,13.79
2022-10-18T20:06:39.546Z,13.81
2022-10-18T20:09:13.357Z,13.54
2022-10-18T20:11:44.084Z,13.68
